createdAt,value
2018-05-25T00:00:52.878Z,70.00
2018-05-25T00:03:21.770Z,40.63
2018-05-25T00:05:50.599Z,128.73
2018-05-25T00:08:19.444Z,124.67
2018-05-25T00:10:48.279Z,126.67
2018-05-25T00:13:17.141Z,51.60
2018-05-25T00:15:45.965Z,25.33
2018-05-25T00:18:14.839Z,28.30
2018-05-25T00:20:43.668Z,117.27
2018-05-25T00:23:12.520Z,124.77
2018-05-25T00:25:41.348Z,37.57
2018-05-25T00:28:10.207Z,17.20
2018-05-25T00:30:39.052Z,20.73
2018-05-25T00:33:07.928Z,42.53
2018-05-25T00:35:36.884Z,38.60
2018-05-25T00:38:05.861Z,46.73
2018-05-25T00:40:34.836Z,32.90
2018-05-25T00:43:03.784Z,51.80
2018-05-25T00:45:32.724Z,35.87
2018-05-25T00:48:01.639Z,23.53
2018-05-25T00:50:30.565Z,24.13
2018-05-25T00:52:59.480Z,25.47
2018-05-25T00:55:34.276Z,25.67
2018-05-25T00:58:03.183Z,24.77
2018-05-25T01:00:32.088Z,25.47
2018-05-25T01:03:00.993Z,25.67
2018-05-25T01:05:30.008Z,24.80
2018-05-25T01:07:58.830Z,28.33
2018-05-25T01:10:27.972Z,25.20
2018-05-25T01:12:56.803Z,25.17
2018-05-25T01:15:25.652Z,23.07
2018-05-25T01:17:54.459Z,24.10
2018-05-25T01:20:23.310Z,26.27
2018-05-25T01:22:52.135Z,22.03
2018-05-25T01:25:20.984Z,20.30
2018-05-25T01:27:49.803Z,20.57
2018-05-25T01:30:18.677Z,30.00
2018-05-25T01:32:47.503Z,28.30
2018-05-25T01:35:16.332Z,38.40
2018-05-25T01:37:45.177Z,29.73
2018-05-25T01:40:14.873Z,26.57
2018-05-25T01:42:43.729Z,31.23
2018-05-25T01:45:12.572Z,29.23
2018-05-25T01:47:41.416Z,31.20
2018-05-25T01:50:10.233Z,67.87
2018-05-25T01:52:39.105Z,70.87
2018-05-25T01:55:08.187Z,63.00
2018-05-25T01:57:37.337Z,43.97
2018-05-25T02:00:06.317Z,41.70
2018-05-25T02:02:35.163Z,29.07
2018-05-25T02:05:03.984Z,29.30
2018-05-25T02:07:33.037Z,26.87
2018-05-25T02:10:02.173Z,46.90
2018-05-25T02:12:31.017Z,30.63
2018-05-25T02:14:59.838Z,28.23
2018-05-25T02:17:28.687Z,30.53
2018-05-25T02:19:57.499Z,41.73
2018-05-25T02:22:26.394Z,73.43
2018-05-25T02:24:55.217Z,56.00
2018-05-25T02:27:24.067Z,29.57
2018-05-25T02:29:52.960Z,30.60
2018-05-25T02:32:21.767Z,26.27
2018-05-25T02:34:50.609Z,25.60
2018-05-25T02:37:19.436Z,146.67
2018-05-25T02:39:48.294Z,73.00
2018-05-25T02:42:17.112Z,41.33
2018-05-25T02:44:46.023Z,23.73
2018-05-25T02:47:14.851Z,20.47
2018-05-25T02:49:43.716Z,16.57
2018-05-25T02:52:12.541Z,14.87
2018-05-25T02:54:41.396Z,15.43
2018-05-25T02:57:10.262Z,16.07
2018-05-25T02:59:39.076Z,15.97
2018-05-25T03:02:07.925Z,19.70
2018-05-25T03:04:36.781Z,20.27
2018-05-25T03:07:05.600Z,22.93
2018-05-25T03:09:34.452Z,21.10
2018-05-25T03:12:03.269Z,22.93
2018-05-25T03:14:32.111Z,26.97
2018-05-25T03:17:01.011Z,22.00
2018-05-25T03:19:29.791Z,23.27
2018-05-25T03:21:58.628Z,25.90
2018-05-25T03:24:27.444Z,22.90
2018-05-25T03:26:56.288Z,23.43
2018-05-25T03:29:25.112Z,20.73
2018-05-25T03:31:53.945Z,21.73
2018-05-25T03:34:22.773Z,29.13
2018-05-25T03:36:51.617Z,27.43
2018-05-25T03:39:20.430Z,27.17
2018-05-25T03:41:49.320Z,27.57
2018-05-25T03:44:18.161Z,32.03
2018-05-25T03:46:47.004Z,23.07
2018-05-25T03:49:15.835Z,27.10
2018-05-25T03:51:44.685Z,27.13
2018-05-25T03:54:13.531Z,20.10
2018-05-25T03:56:42.359Z,26.43
2018-05-25T03:59:17.026Z,23.87
2018-05-25T04:01:51.691Z,28.30
2018-05-25T04:04:20.552Z,33.33
2018-05-25T04:06:49.352Z,39.77
2018-05-25T04:09:18.200Z,32.03
2018-05-25T04:11:47.046Z,29.27
2018-05-25T04:14:16.099Z,31.77
2018-05-25T04:16:45.212Z,42.93
2018-05-25T04:19:14.045Z,38.90
2018-05-25T04:21:42.872Z,32.43
2018-05-25T04:24:11.714Z,32.03
2018-05-25T04:26:40.530Z,29.10
2018-05-25T04:29:09.381Z,32.60
2018-05-25T04:31:38.497Z,41.47
2018-05-25T04:34:07.406Z,42.30
2018-05-25T04:36:36.510Z,37.73
2018-05-25T04:39:05.660Z,33.00
2018-05-25T04:41:34.772Z,36.77
2018-05-25T04:44:03.912Z,45.57
2018-05-25T04:46:33.023Z,40.63
2018-05-25T04:49:02.177Z,41.47
2018-05-25T04:51:31.298Z,31.90
2018-05-25T04:54:00.425Z,26.90
2018-05-25T04:56:29.564Z,28.90
2018-05-25T04:58:58.710Z,30.00
2018-05-25T05:01:27.867Z,24.77
2018-05-25T05:03:56.980Z,27.40
2018-05-25T05:06:25.828Z,28.73
2018-05-25T05:08:54.649Z,27.83
2018-05-25T05:11:23.504Z,29.67
2018-05-25T05:13:52.323Z,26.07
2018-05-25T05:16:21.184Z,26.23
2018-05-25T05:18:50.011Z,23.17
2018-05-25T05:21:18.857Z,22.30
2018-05-25T05:23:47.714Z,21.97
2018-05-25T05:26:16.547Z,18.70
2018-05-25T05:28:45.373Z,18.87
2018-05-25T05:31:14.223Z,16.60
2018-05-25T05:33:43.086Z,23.50
2018-05-25T05:36:11.860Z,23.13
2018-05-25T05:38:40.719Z,21.53
2018-05-25T05:41:09.551Z,26.17
2018-05-25T05:43:38.388Z,21.00
2018-05-25T05:46:07.239Z,23.57
2018-05-25T05:48:36.095Z,23.80
2018-05-25T05:51:04.915Z,24.70
2018-05-25T05:53:33.792Z,22.80
2018-05-25T05:56:02.611Z,25.50
2018-05-25T05:58:31.465Z,34.60
2018-05-25T06:01:00.406Z,34.40
2018-05-25T06:03:29.224Z,33.83
2018-05-25T06:08:33.556Z,33.00
2018-05-25T06:11:02.402Z,31.47
2018-05-25T06:13:31.247Z,37.23
2018-05-25T06:16:00.097Z,30.53
2018-05-25T06:18:28.929Z,28.47
2018-05-25T06:20:57.737Z,29.97
2018-05-25T06:23:26.591Z,28.70
2018-05-25T06:25:55.434Z,31.67
2018-05-25T06:28:24.257Z,28.43
2018-05-25T06:30:53.100Z,31.23
2018-05-25T06:33:21.925Z,26.80
2018-05-25T06:35:50.783Z,32.43
2018-05-25T06:38:19.641Z,29.27
2018-05-25T06:40:48.492Z,28.93
2018-05-25T06:43:17.300Z,26.83
2018-05-25T06:45:46.141Z,30.03
2018-05-25T06:48:14.989Z,30.37
2018-05-25T06:50:43.906Z,29.83
2018-05-25T06:53:12.799Z,29.53
2018-05-25T06:55:41.622Z,34.23
2018-05-25T06:58:10.461Z,35.40
2018-05-25T07:00:39.281Z,27.83
2018-05-25T07:03:08.110Z,29.87
2018-05-25T07:05:36.957Z,30.97
2018-05-25T07:08:05.919Z,32.43
2018-05-25T07:10:34.764Z,31.93
2018-05-25T07:13:03.587Z,33.13
2018-05-25T07:15:32.448Z,31.77
2018-05-25T07:18:01.263Z,31.60
2018-05-25T07:20:30.106Z,31.00
2018-05-25T07:22:58.903Z,34.63
2018-05-25T07:25:28.059Z,32.80
2018-05-25T07:27:57.185Z,35.33
2018-05-25T07:30:26.336Z,36.43
2018-05-25T07:32:55.455Z,36.77
2018-05-25T07:35:24.612Z,40.47
2018-05-25T07:37:53.745Z,39.00
2018-05-25T07:40:22.873Z,41.43
2018-05-25T07:42:52.003Z,42.00
2018-05-25T07:45:20.884Z,42.33
2018-05-25T07:47:50.006Z,46.33
2018-05-25T07:50:19.157Z,47.87
2018-05-25T07:52:48.274Z,55.27
2018-05-25T07:55:17.437Z,57.57
2018-05-25T07:57:46.299Z,57.93
2018-05-25T08:00:15.301Z,56.43
2018-05-25T08:02:44.249Z,55.87
2018-05-25T08:05:13.401Z,50.53
2018-05-25T08:07:42.410Z,50.10
2018-05-25T08:10:11.522Z,55.10
2018-05-25T08:12:40.390Z,54.33
2018-05-25T08:15:09.212Z,49.30
2018-05-25T08:17:38.356Z,47.73
2018-05-25T08:20:07.489Z,48.27
2018-05-25T08:22:36.641Z,42.97
2018-05-25T08:25:05.668Z,44.40
2018-05-25T08:27:34.522Z,45.80
2018-05-25T08:30:03.348Z,41.23
2018-05-25T08:32:32.496Z,54.60
2018-05-25T08:35:01.609Z,33.47
2018-05-25T08:37:30.794Z,35.63
2018-05-25T08:39:59.946Z,35.10
2018-05-25T08:42:29.099Z,30.63
2018-05-25T08:44:58.220Z,30.03
2018-05-25T08:47:27.220Z,27.40
2018-05-25T08:49:56.049Z,26.47
2018-05-25T08:52:25.173Z,21.00
2018-05-25T08:54:54.028Z,20.33
2018-05-25T08:57:23.112Z,18.73
2018-05-25T08:59:52.284Z,17.93
2018-05-25T09:02:21.099Z,26.30
2018-05-25T09:04:49.941Z,19.87
2018-05-25T09:07:19.049Z,25.87
2018-05-25T09:09:48.222Z,15.33
2018-05-25T09:12:17.359Z,14.90
2018-05-25T09:14:46.388Z,15.23
2018-05-25T09:17:15.500Z,17.80
2018-05-25T09:19:44.360Z,13.33
2018-05-25T09:22:13.327Z,14.27
2018-05-25T09:24:42.368Z,33.53
2018-05-25T09:27:11.230Z,14.57
2018-05-25T09:29:40.352Z,18.07
2018-05-25T09:32:09.501Z,20.67
2018-05-25T09:34:38.636Z,9.80
2018-05-25T09:37:07.481Z,16.27
2018-05-25T09:39:36.313Z,9.27
2018-05-25T09:42:05.521Z,8.73
2018-05-25T09:44:34.628Z,6.30
2018-05-25T09:47:03.767Z,8.27
2018-05-25T09:49:32.912Z,8.70
2018-05-25T09:52:02.525Z,10.43
2018-05-25T09:54:31.637Z,7.50
2018-05-25T09:57:00.788Z,6.10
2018-05-25T09:59:29.608Z,7.07
2018-05-25T10:01:58.807Z,8.43
2018-05-25T10:04:27.945Z,8.23
2018-05-25T10:06:57.104Z,9.67
2018-05-25T10:09:26.244Z,9.87
2018-05-25T10:11:55.395Z,9.83
2018-05-25T10:14:24.548Z,8.20
2018-05-25T10:16:53.676Z,7.77
2018-05-25T10:19:22.903Z,8.40
2018-05-25T10:21:52.048Z,7.80
2018-05-25T10:24:21.156Z,9.07
2018-05-25T10:26:50.291Z,9.53
2018-05-25T10:29:19.429Z,9.87
2018-05-25T10:31:48.580Z,9.97
2018-05-25T10:34:17.728Z,13.37
2018-05-25T10:36:46.890Z,10.10
2018-05-25T10:39:15.731Z,8.67
2018-05-25T10:41:44.851Z,7.57
2018-05-25T10:44:14.014Z,7.77
2018-05-25T10:46:43.174Z,9.03
2018-05-25T10:49:12.307Z,11.47
2018-05-25T10:51:41.459Z,7.27
2018-05-25T10:54:10.597Z,6.77
2018-05-25T10:56:39.748Z,7.53
2018-05-25T10:59:08.571Z,5.00
2018-05-25T11:01:37.406Z,4.70
2018-05-25T11:04:06.229Z,5.27
2018-05-25T11:06:35.378Z,4.57
2018-05-25T11:09:05.129Z,4.17
2018-05-25T11:11:34.250Z,4.20
2018-05-25T11:14:03.088Z,4.90
2018-05-25T11:16:31.921Z,4.00
2018-05-25T11:19:00.765Z,3.27
2018-05-25T11:21:29.906Z,3.73
2018-05-25T11:23:59.012Z,3.57
2018-05-25T11:26:28.261Z,4.27
2018-05-25T11:28:57.109Z,3.80
2018-05-25T11:31:25.929Z,3.70
2018-05-25T11:33:54.772Z,3.00
2018-05-25T11:36:23.850Z,6.13
2018-05-25T11:38:53.011Z,3.30
2018-05-25T11:41:22.156Z,3.63
2018-05-25T11:43:51.298Z,3.80
2018-05-25T11:46:20.401Z,3.77
2018-05-25T11:48:49.242Z,5.27
2018-05-25T11:51:18.395Z,4.10
2018-05-25T11:53:47.236Z,4.27
2018-05-25T11:56:16.213Z,3.07
2018-05-25T11:58:45.045Z,3.17
2018-05-25T12:01:13.860Z,3.40
2018-05-25T12:03:42.692Z,3.00
2018-05-25T12:06:11.713Z,3.97
2018-05-25T12:08:40.955Z,4.63
2018-05-25T12:11:10.069Z,4.00
2018-05-25T12:13:39.210Z,3.13
2018-05-25T12:16:08.330Z,3.03
2018-05-25T12:18:37.485Z,3.30
2018-05-25T12:21:06.598Z,3.70
2018-05-25T12:23:35.486Z,5.87
2018-05-25T12:26:04.320Z,9.00
2018-05-25T12:28:33.563Z,7.47
2018-05-25T12:31:02.401Z,6.10
2018-05-25T12:33:31.509Z,3.13
2018-05-25T12:36:00.378Z,4.30
2018-05-25T12:38:29.197Z,5.30
2018-05-25T12:40:58.000Z,3.20
2018-05-25T12:43:26.831Z,3.10
2018-05-25T12:45:55.676Z,4.63
2018-05-25T12:48:24.484Z,5.80
2018-05-25T12:50:53.345Z,4.20
2018-05-25T12:53:22.149Z,3.73
2018-05-25T12:55:50.999Z,3.80
2018-05-25T12:58:19.823Z,3.30
2018-05-25T13:00:48.636Z,3.90
2018-05-25T13:03:17.479Z,2.87
2018-05-25T13:05:46.469Z,4.10
2018-05-25T13:08:15.597Z,2.63
2018-05-25T13:10:44.695Z,2.80
2018-05-25T13:13:13.858Z,10.97
2018-05-25T13:15:43.002Z,6.60
2018-05-25T13:18:12.152Z,5.80
2018-05-25T13:20:41.296Z,4.17
2018-05-25T13:23:10.420Z,2.80
2018-05-25T13:25:39.621Z,5.33
2018-05-25T13:28:08.728Z,3.03
2018-05-25T13:30:37.908Z,3.23
2018-05-25T13:33:07.021Z,2.90
2018-05-25T13:35:36.169Z,4.60
2018-05-25T13:38:05.279Z,3.50
2018-05-25T13:40:34.245Z,11.23
2018-05-25T13:43:03.167Z,3.07
2018-05-25T13:45:32.043Z,2.87
2018-05-25T13:48:00.922Z,3.10
2018-05-25T13:50:29.729Z,2.90
2018-05-25T13:52:58.592Z,3.60
2018-05-25T13:55:27.414Z,3.50
2018-05-25T13:57:56.307Z,2.90
2018-05-25T14:00:25.264Z,3.07
2018-05-25T14:02:54.168Z,3.27
2018-05-25T14:05:22.988Z,2.80
2018-05-25T14:07:51.824Z,3.40
2018-05-25T14:10:20.643Z,2.50
2018-05-25T14:12:49.494Z,2.87
2018-05-25T14:15:18.319Z,2.63
2018-05-25T14:17:47.181Z,10.60
2018-05-25T14:20:16.005Z,2.60
2018-05-25T14:22:44.840Z,8.90
2018-05-25T14:25:13.665Z,2.23
2018-05-25T14:27:42.538Z,2.67
2018-05-25T14:30:11.717Z,6.47
2018-05-25T14:32:40.832Z,17.17
2018-05-25T14:35:09.985Z,11.57
2018-05-25T14:37:39.119Z,2.20
2018-05-25T14:40:08.047Z,2.87
2018-05-25T14:42:35.519Z,7.13
2018-05-25T14:45:03.004Z,2.57
2018-05-25T14:47:30.514Z,4.80
2018-05-25T14:49:58.748Z,2.30
2018-05-25T14:52:26.221Z,1.97
2018-05-25T14:54:53.717Z,2.30
2018-05-25T14:57:21.218Z,4.03
2018-05-25T14:59:48.710Z,17.40
2018-05-25T15:02:16.981Z,4.77
2018-05-25T15:04:44.483Z,2.53
2018-05-25T15:07:13.628Z,2.30
2018-05-25T15:09:42.789Z,3.40
2018-05-25T15:12:11.589Z,2.63
2018-05-25T15:14:40.461Z,3.43
2018-05-25T15:17:09.292Z,4.60
2018-05-25T15:19:38.460Z,3.00
2018-05-25T15:22:07.988Z,3.50
2018-05-25T15:24:37.114Z,3.00
2018-05-25T15:27:06.336Z,3.03
2018-05-25T15:29:35.508Z,2.70
2018-05-25T15:32:04.688Z,4.53
2018-05-25T15:34:33.779Z,5.80
2018-05-25T15:37:02.918Z,4.17
2018-05-25T15:39:32.045Z,2.43
2018-05-25T15:42:00.873Z,1.80
2018-05-25T15:44:29.772Z,3.13
2018-05-25T15:46:58.588Z,7.50
2018-05-25T15:49:27.460Z,2.10
2018-05-25T15:51:56.590Z,2.40
2018-05-25T15:54:25.903Z,1.90
2018-05-25T15:56:55.029Z,2.33
2018-05-25T15:59:24.182Z,2.40
2018-05-25T16:01:53.308Z,10.70
2018-05-25T16:04:22.457Z,22.47
2018-05-25T16:06:51.640Z,2.10
2018-05-25T16:09:20.800Z,3.07
2018-05-25T16:11:49.913Z,6.40
2018-05-25T16:14:19.089Z,4.97
2018-05-25T16:16:48.222Z,3.00
2018-05-25T16:19:17.396Z,3.40
2018-05-25T16:21:46.537Z,6.20
2018-05-25T16:24:15.639Z,2.80
2018-05-25T16:26:44.808Z,2.40
2018-05-25T16:29:13.943Z,2.20
2018-05-25T16:31:43.102Z,3.03
2018-05-25T16:34:12.222Z,2.30
2018-05-25T16:36:41.411Z,2.00
2018-05-25T16:39:10.644Z,2.30
2018-05-25T16:41:39.761Z,2.50
2018-05-25T16:44:08.876Z,2.27
2018-05-25T16:46:38.030Z,2.43
2018-05-25T16:49:07.145Z,2.60
2018-05-25T16:51:36.288Z,2.10
2018-05-25T16:54:05.405Z,2.33
2018-05-25T16:56:34.550Z,2.67
2018-05-25T16:59:03.735Z,2.50
2018-05-25T17:01:32.872Z,6.57
2018-05-25T17:04:01.991Z,3.97
2018-05-25T17:06:31.121Z,3.00
2018-05-25T17:09:00.298Z,16.63
2018-05-25T17:11:29.427Z,3.30
2018-05-25T17:13:58.628Z,3.77
2018-05-25T17:19:03.965Z,5.57
2018-05-25T17:21:33.109Z,6.27
2018-05-25T17:24:02.364Z,4.20
2018-05-25T17:26:31.514Z,3.10
2018-05-25T17:29:00.651Z,2.40
2018-05-25T17:31:29.809Z,2.17
2018-05-25T17:33:58.957Z,2.90
2018-05-25T17:36:28.140Z,4.13
2018-05-25T17:38:57.251Z,3.53
2018-05-25T17:41:26.380Z,4.37
2018-05-25T17:43:55.561Z,3.57
2018-05-25T17:46:24.421Z,8.93
2018-05-25T17:48:53.241Z,3.10
2018-05-25T17:51:22.112Z,2.60
2018-05-25T17:53:50.950Z,11.10
2018-05-25T17:56:19.843Z,8.07
2018-05-25T17:58:48.699Z,53.57
2018-05-25T18:01:17.537Z,7.90
2018-05-25T18:03:46.421Z,14.37
2018-05-25T18:06:15.237Z,3.80
2018-05-25T18:08:44.083Z,5.03
2018-05-25T18:11:12.949Z,13.10
2018-05-25T18:13:41.833Z,6.47
2018-05-25T18:16:10.635Z,4.67
2018-05-25T18:18:39.484Z,5.37
2018-05-25T18:21:08.650Z,19.07
2018-05-25T18:23:37.792Z,17.47
2018-05-25T18:26:06.877Z,8.17
2018-05-25T18:28:36.038Z,8.37
2018-05-25T18:31:04.977Z,7.50
2018-05-25T18:33:33.917Z,4.83
2018-05-25T18:36:02.840Z,7.17
2018-05-25T18:38:31.912Z,7.20
2018-05-25T18:41:00.752Z,5.20
2018-05-25T18:43:29.657Z,6.10
2018-05-25T18:45:58.793Z,6.30
2018-05-25T18:48:27.962Z,5.77
2018-05-25T18:50:56.764Z,5.73
2018-05-25T18:53:25.931Z,5.70
2018-05-25T18:55:55.087Z,5.80
2018-05-25T18:58:24.260Z,6.10
2018-05-25T19:00:53.413Z,5.83
2018-05-25T19:03:22.558Z,6.70
2018-05-25T19:05:51.657Z,5.70
2018-05-25T19:08:20.557Z,6.57
2018-05-25T19:10:49.730Z,6.97
2018-05-25T19:13:18.622Z,6.80
2018-05-25T19:15:47.489Z,6.70
2018-05-25T19:18:16.316Z,5.93
2018-05-25T19:20:45.187Z,7.07
2018-05-25T19:23:14.319Z,8.73
2018-05-25T19:25:43.259Z,11.43
2018-05-25T19:28:12.130Z,10.13
2018-05-25T19:30:41.003Z,11.63
2018-05-25T19:33:09.916Z,9.53
2018-05-25T19:35:38.741Z,29.07
2018-05-25T19:38:07.608Z,7.57
2018-05-25T19:40:36.504Z,11.53
2018-05-25T19:43:05.390Z,27.30
2018-05-25T19:45:34.297Z,13.63
2018-05-25T19:48:03.155Z,18.93
2018-05-25T19:50:32.029Z,27.30
2018-05-25T19:53:00.891Z,9.37
2018-05-25T19:55:29.716Z,25.07
2018-05-25T19:57:58.592Z,17.70
2018-05-25T20:00:27.437Z,17.80
2018-05-25T20:02:56.626Z,15.67
2018-05-25T20:05:25.479Z,10.70
2018-05-25T20:07:54.672Z,18.73
2018-05-25T20:10:23.994Z,50.77
2018-05-25T20:12:53.156Z,47.23
2018-05-25T20:15:22.009Z,51.07
2018-05-25T20:17:51.156Z,19.80
2018-05-25T20:20:19.985Z,26.60
2018-05-25T20:22:48.842Z,30.60
2018-05-25T20:25:17.694Z,8.93
2018-05-25T20:27:46.886Z,10.20
2018-05-25T20:30:16.004Z,16.30
2018-05-25T20:32:45.214Z,26.83
2018-05-25T20:35:14.360Z,24.27
2018-05-25T20:37:43.528Z,33.53
2018-05-25T20:40:12.710Z,29.70
2018-05-25T20:42:41.911Z,17.73
2018-05-25T20:45:11.069Z,10.40
2018-05-25T20:47:39.929Z,9.17
2018-05-25T20:50:08.794Z,13.07
2018-05-25T20:52:38.325Z,10.87
2018-05-25T20:55:07.503Z,10.70
2018-05-25T20:57:36.339Z,29.53
2018-05-25T21:00:05.180Z,21.00
2018-05-25T21:02:34.038Z,49.37
2018-05-25T21:05:02.883Z,36.07
2018-05-25T21:07:31.707Z,14.37
2018-05-25T21:10:00.819Z,24.60
2018-05-25T21:12:29.648Z,19.80
2018-05-25T21:14:58.534Z,13.13
2018-05-25T21:17:27.405Z,13.50
2018-05-25T21:19:56.271Z,13.47
2018-05-25T21:22:25.166Z,37.33
2018-05-25T21:24:54.616Z,18.67
2018-05-25T21:27:23.545Z,34.60
2018-05-25T21:29:52.387Z,33.67
2018-05-25T21:32:21.294Z,93.47
2018-05-25T21:34:50.138Z,228.80
2018-05-25T21:37:18.989Z,309.93
2018-05-25T21:39:48.130Z,205.40
2018-05-25T21:42:17.314Z,35.47
2018-05-25T21:44:46.440Z,33.17
2018-05-25T21:47:15.640Z,19.30
2018-05-25T21:49:44.688Z,13.73
2018-05-25T21:52:13.549Z,13.40
2018-05-25T21:54:42.359Z,42.23
2018-05-25T21:57:11.233Z,90.33
2018-05-25T21:59:40.129Z,98.73
2018-05-25T22:02:08.969Z,24.43
2018-05-25T22:04:37.830Z,33.23
2018-05-25T22:07:06.663Z,37.80
2018-05-25T22:09:35.514Z,37.73
2018-05-25T22:12:04.368Z,10.43
2018-05-25T22:14:33.199Z,25.73
2018-05-25T22:17:02.053Z,12.93
2018-05-25T22:19:30.923Z,92.13
2018-05-25T22:21:59.768Z,57.90
2018-05-25T22:24:28.617Z,13.90
2018-05-25T22:26:57.481Z,11.63
2018-05-25T22:29:26.316Z,34.90
2018-05-25T22:31:55.216Z,27.27
2018-05-25T22:34:24.023Z,48.10
2018-05-25T22:36:52.969Z,56.23
2018-05-25T22:39:22.087Z,25.00
2018-05-25T22:41:55.989Z,20.30
2018-05-25T22:44:31.071Z,13.63
2018-05-25T22:47:06.007Z,11.60
2018-05-25T22:49:40.912Z,24.43
2018-05-25T22:52:30.711Z,37.03
2018-05-25T22:54:59.529Z,22.10
2018-05-25T22:57:28.380Z,12.53
2018-05-25T22:59:57.242Z,16.03
2018-05-25T23:02:26.122Z,11.07
2018-05-25T23:04:54.980Z,10.97
2018-05-25T23:07:24.124Z,11.33
2018-05-25T23:09:52.961Z,14.53
2018-05-25T23:12:21.772Z,12.93
2018-05-25T23:14:50.909Z,22.33
2018-05-25T23:17:20.041Z,33.57
2018-05-25T23:19:49.229Z,27.50
2018-05-25T23:22:18.203Z,41.90
2018-05-25T23:24:47.356Z,20.53
2018-05-25T23:27:16.416Z,24.17
2018-05-25T23:29:45.252Z,13.00
2018-05-25T23:32:14.379Z,14.70
2018-05-25T23:34:43.249Z,13.60
2018-05-25T23:37:12.088Z,13.73
2018-05-25T23:39:40.925Z,14.03
2018-05-25T23:42:09.875Z,13.70
2018-05-25T23:44:38.749Z,13.87
2018-05-25T23:47:07.595Z,14.77
2018-05-25T23:49:36.476Z,15.67
2018-05-25T23:52:05.584Z,15.23
2018-05-25T23:54:34.714Z,14.77
2018-05-25T23:57:03.816Z,15.37
2018-05-25T23:59:32.809Z,13.93
